createdAt,value
2018-06-20T00:02:06.224Z,23.00
2018-06-20T00:04:35.461Z,23.00
2018-06-20T00:07:04.721Z,23.00
2018-06-20T00:09:33.992Z,23.00
2018-06-20T00:12:03.371Z,23.00
2018-06-20T00:14:32.632Z,23.00
2018-06-20T00:17:02.066Z,23.00
2018-06-20T00:19:31.335Z,23.00
2018-06-20T00:22:00.608Z,23.00
2018-06-20T00:24:29.867Z,23.00
2018-06-20T00:26:59.186Z,23.00
2018-06-20T00:29:28.551Z,23.00
2018-06-20T00:31:57.845Z,23.00
2018-06-20T00:34:27.126Z,23.00
2018-06-20T00:36:56.406Z,23.00
2018-06-20T00:39:25.682Z,23.00
2018-06-20T00:41:55.022Z,23.00
2018-06-20T00:44:24.250Z,23.00
2018-06-20T00:46:53.499Z,23.00
2018-06-20T00:49:22.753Z,23.00
2018-06-20T00:51:52.017Z,23.00
2018-06-20T00:54:21.353Z,23.00
2018-06-20T00:56:50.617Z,23.00
2018-06-20T00:59:19.877Z,23.00
2018-06-20T01:01:49.128Z,23.00
2018-06-20T01:04:18.408Z,23.00
2018-06-20T01:06:47.703Z,23.00
2018-06-20T01:09:16.979Z,23.00
2018-06-20T01:11:46.423Z,23.00
2018-06-20T01:14:15.594Z,23.00
2018-06-20T01:16:44.866Z,23.00
2018-06-20T01:19:14.126Z,23.00
2018-06-20T01:21:43.383Z,23.00
2018-06-20T01:24:12.687Z,23.00
2018-06-20T01:26:41.933Z,23.00
2018-06-20T01:29:11.562Z,23.00
2018-06-20T01:31:40.869Z,23.00
2018-06-20T01:34:10.131Z,23.00
2018-06-20T01:36:39.402Z,23.00
2018-06-20T01:39:10.161Z,23.00
2018-06-20T01:41:39.481Z,23.00
2018-06-20T01:44:08.748Z,23.00
2018-06-20T01:46:38.025Z,23.00
2018-06-20T01:49:07.300Z,23.00
2018-06-20T01:51:36.567Z,23.00
2018-06-20T01:54:05.854Z,23.00
2018-06-20T01:56:35.132Z,23.00
2018-06-20T01:59:04.437Z,23.00
2018-06-20T02:01:33.863Z,23.00
2018-06-20T02:04:03.151Z,23.00
2018-06-20T02:06:32.461Z,23.00
2018-06-20T02:09:01.726Z,23.00
2018-06-20T02:11:31.467Z,23.00
2018-06-20T02:14:00.748Z,23.00
2018-06-20T02:16:30.011Z,23.00
2018-06-20T02:18:59.269Z,23.00
2018-06-20T02:21:28.563Z,23.00
2018-06-20T02:23:57.867Z,23.00
2018-06-20T02:26:27.159Z,23.00
2018-06-20T02:28:56.484Z,23.00
2018-06-20T02:36:34.901Z,23.00
2018-06-20T02:39:06.391Z,23.00
2018-06-20T02:41:36.532Z,23.00
2018-06-20T02:44:05.906Z,23.00
2018-06-20T02:46:35.209Z,23.00
2018-06-20T02:51:33.300Z,23.00
2018-06-20T02:54:02.534Z,22.90
2018-06-20T02:56:31.791Z,23.00
2018-06-20T02:59:01.070Z,23.00
2018-06-20T03:01:30.419Z,23.00
2018-06-20T03:03:59.717Z,23.00
2018-06-20T03:06:29.046Z,23.00
2018-06-20T03:09:02.761Z,23.00
2018-06-20T03:11:32.108Z,23.00
2018-06-20T03:14:01.382Z,23.00
2018-06-20T03:16:30.697Z,23.00
2018-06-20T03:19:00.018Z,23.00
2018-06-20T03:21:29.290Z,23.00
2018-06-20T03:23:58.563Z,22.90
2018-06-20T03:26:27.902Z,22.90
2018-06-20T03:28:57.190Z,23.00
2018-06-20T03:31:26.733Z,22.90
2018-06-20T03:33:56.026Z,22.90
2018-06-20T03:38:54.369Z,22.90
2018-06-20T03:41:23.656Z,23.00
2018-06-20T03:43:52.930Z,22.90
2018-06-20T03:46:22.205Z,23.00
2018-06-20T03:48:51.480Z,22.90
2018-06-20T03:51:20.751Z,22.90
2018-06-20T03:53:50.010Z,22.90
2018-06-20T03:56:19.306Z,22.90
2018-06-20T03:58:48.603Z,22.90
2018-06-20T04:01:17.859Z,22.90
2018-06-20T04:03:47.136Z,22.90
2018-06-20T04:06:16.403Z,22.90
2018-06-20T04:08:45.684Z,22.90
2018-06-20T04:11:14.987Z,22.90
2018-06-20T04:13:44.258Z,22.90
2018-06-20T04:16:13.511Z,22.90
2018-06-20T04:18:43.828Z,22.90
2018-06-20T04:21:14.320Z,22.90
2018-06-20T04:23:43.600Z,22.90
2018-06-20T04:26:13.482Z,22.90
2018-06-20T04:28:42.724Z,22.90
2018-06-20T04:31:11.994Z,22.90
2018-06-20T04:33:41.296Z,22.90
2018-06-20T04:36:10.562Z,22.90
2018-06-20T04:38:39.843Z,22.90
2018-06-20T04:41:09.113Z,23.00
2018-06-20T04:43:38.372Z,23.00
2018-06-20T04:46:07.777Z,23.00
2018-06-20T04:48:37.090Z,22.90
2018-06-20T04:51:06.333Z,23.00
2018-06-20T04:53:35.606Z,22.90
2018-06-20T04:56:07.057Z,22.90
2018-06-20T05:01:10.128Z,22.90
2018-06-20T05:03:41.097Z,22.90
2018-06-20T05:06:10.357Z,22.90
2018-06-20T05:08:41.401Z,22.90
2018-06-20T05:11:14.201Z,22.90
2018-06-20T05:13:43.538Z,22.90
2018-06-20T05:16:15.159Z,22.90
2018-06-20T05:18:44.424Z,22.90
2018-06-20T05:21:13.709Z,22.90
2018-06-20T05:23:42.999Z,22.90
2018-06-20T05:26:12.259Z,22.90
2018-06-20T05:28:41.567Z,22.90
2018-06-20T05:31:11.086Z,22.90
2018-06-20T05:33:40.325Z,22.90
2018-06-20T05:36:09.632Z,22.90
2018-06-20T05:38:38.873Z,22.90
2018-06-20T05:43:36.962Z,23.00
2018-06-20T05:46:06.507Z,22.90
2018-06-20T05:51:04.621Z,23.00
2018-06-20T05:53:33.884Z,23.00
2018-06-20T05:56:03.178Z,23.00
2018-06-20T05:58:32.638Z,23.00
2018-06-20T06:01:01.926Z,23.00
2018-06-20T06:03:31.349Z,23.00
2018-06-20T06:06:12.969Z,23.00
2018-06-20T06:08:42.549Z,23.00
2018-06-20T06:11:11.813Z,23.00
2018-06-20T06:13:41.097Z,23.00
2018-06-20T06:16:10.440Z,23.00
2018-06-20T06:18:39.757Z,23.00
2018-06-20T06:21:09.053Z,22.90
2018-06-20T06:23:38.437Z,22.90
2018-06-20T06:26:07.732Z,22.90
2018-06-20T06:28:37.224Z,22.90
2018-06-20T06:31:06.490Z,22.90
2018-06-20T06:33:35.765Z,22.90
2018-06-20T06:36:05.063Z,22.90
2018-06-20T06:38:34.337Z,22.90
2018-06-20T06:43:32.461Z,22.90
2018-06-20T06:46:01.734Z,22.90
2018-06-20T06:48:31.110Z,22.90
2018-06-20T06:51:00.378Z,22.90
2018-06-20T06:53:29.676Z,22.90
2018-06-20T06:55:59.004Z,22.90
2018-06-20T06:58:28.242Z,22.90
2018-06-20T07:00:57.542Z,22.90
2018-06-20T07:03:26.798Z,22.90
2018-06-20T07:05:56.204Z,22.90
2018-06-20T07:08:25.536Z,22.90
2018-06-20T07:10:54.813Z,22.90
2018-06-20T07:13:24.083Z,22.90
2018-06-20T07:15:53.379Z,22.90
2018-06-20T07:18:22.662Z,22.90
2018-06-20T07:20:51.935Z,22.90
2018-06-20T07:23:21.310Z,22.90
2018-06-20T07:25:50.746Z,22.90
2018-06-20T07:28:20.035Z,22.90
2018-06-20T07:35:47.274Z,22.90
2018-06-20T07:38:16.453Z,22.90
2018-06-20T07:40:45.750Z,22.90
2018-06-20T07:43:15.034Z,22.90
2018-06-20T07:45:44.303Z,22.90
2018-06-20T07:48:13.571Z,22.90
2018-06-20T07:50:43.698Z,22.90
2018-06-20T07:53:12.898Z,22.90
2018-06-20T07:58:15.178Z,22.90
2018-06-20T08:00:49.769Z,22.90
2018-06-20T08:03:24.205Z,23.00
2018-06-20T08:05:58.853Z,23.00
2018-06-20T08:08:33.367Z,23.00
2018-06-20T08:11:07.842Z,23.00
2018-06-20T08:13:42.532Z,23.00
2018-06-20T08:16:17.287Z,23.00
2018-06-20T08:18:51.814Z,23.00
2018-06-20T08:21:21.072Z,22.90
2018-06-20T08:23:50.327Z,23.00
2018-06-20T08:26:19.590Z,23.00
2018-06-20T08:28:48.879Z,23.00
2018-06-20T08:31:18.157Z,23.00
2018-06-20T08:33:47.478Z,23.00
2018-06-20T08:36:16.765Z,23.00
2018-06-20T08:38:46.029Z,23.00
2018-06-20T08:41:15.358Z,23.00
2018-06-20T08:43:44.652Z,23.00
2018-06-20T08:46:13.989Z,23.00
2018-06-20T08:48:43.270Z,23.00
2018-06-20T08:51:12.553Z,23.00
2018-06-20T08:53:41.836Z,23.00
2018-06-20T08:56:11.170Z,23.00
2018-06-20T08:58:40.454Z,23.00
2018-06-20T09:01:09.712Z,23.00
2018-06-20T09:03:38.987Z,23.10
2018-06-20T09:06:13.465Z,23.10
2018-06-20T09:08:47.973Z,23.10
2018-06-20T09:11:22.488Z,23.10
2018-06-20T09:13:56.921Z,23.10
2018-06-20T09:16:31.502Z,23.10
2018-06-20T09:19:05.922Z,23.10
2018-06-20T09:21:35.180Z,23.10
2018-06-20T09:24:04.422Z,23.10
2018-06-20T09:26:33.667Z,23.10
2018-06-20T09:29:02.937Z,23.10
2018-06-20T09:31:32.488Z,23.10
2018-06-20T09:34:01.777Z,23.10
2018-06-20T09:36:31.034Z,23.20
2018-06-20T09:39:00.630Z,23.20
2018-06-20T09:41:30.231Z,23.20
2018-06-20T09:43:59.497Z,23.20
2018-06-20T09:46:28.850Z,23.20
2018-06-20T09:48:58.099Z,23.20
2018-06-20T09:56:25.062Z,23.30
2018-06-20T09:58:54.377Z,23.30
2018-06-20T10:01:28.905Z,23.30
2018-06-20T10:04:03.405Z,23.30
2018-06-20T10:06:39.033Z,23.30
2018-06-20T10:09:13.688Z,23.30
2018-06-20T10:11:48.317Z,23.30
2018-06-20T10:14:17.609Z,23.30
2018-06-20T10:16:46.861Z,23.30
2018-06-20T10:19:16.153Z,23.30
2018-06-20T10:21:45.450Z,23.30
2018-06-20T10:24:14.747Z,23.30
2018-06-20T10:26:44.014Z,23.30
2018-06-20T10:29:13.278Z,23.40
2018-06-20T10:31:42.687Z,23.40
2018-06-20T10:34:12.018Z,23.40
2018-06-20T10:36:41.236Z,23.40
2018-06-20T10:39:11.302Z,23.40
2018-06-20T10:41:40.992Z,23.40
2018-06-20T10:44:16.249Z,23.50
2018-06-20T10:46:50.905Z,23.40
2018-06-20T10:49:20.551Z,23.40
2018-06-20T10:51:49.832Z,23.40
2018-06-20T10:54:19.126Z,23.40
2018-06-20T10:56:53.757Z,23.40
2018-06-20T10:59:28.281Z,23.50
2018-06-20T11:02:02.893Z,23.50
2018-06-20T11:04:37.485Z,23.50
2018-06-20T11:07:12.147Z,23.50
2018-06-20T11:09:46.680Z,23.60
2018-06-20T11:12:21.302Z,23.60
2018-06-20T11:14:50.623Z,23.60
2018-06-20T11:17:19.891Z,23.60
2018-06-20T11:19:49.183Z,23.60
2018-06-20T11:22:18.460Z,23.50
2018-06-20T11:24:47.719Z,23.50
2018-06-20T11:27:16.989Z,23.60
2018-06-20T11:29:46.351Z,23.50
2018-06-20T11:32:15.634Z,23.70
2018-06-20T11:34:44.894Z,23.70
2018-06-20T11:37:14.284Z,23.80
2018-06-20T11:39:43.522Z,23.70
2018-06-20T11:42:12.770Z,23.70
2018-06-20T11:44:42.038Z,23.70
2018-06-20T11:47:43.144Z,23.80
2018-06-20T11:50:13.328Z,23.80
2018-06-20T11:52:47.830Z,23.80
2018-06-20T11:55:22.487Z,23.90
2018-06-20T11:57:51.792Z,23.90
2018-06-20T12:00:26.443Z,23.90
2018-06-20T12:03:01.173Z,23.90
2018-06-20T12:05:35.622Z,23.90
2018-06-20T12:08:10.284Z,23.90
2018-06-20T12:10:44.814Z,23.80
2018-06-20T12:13:19.577Z,23.90
2018-06-20T12:15:54.130Z,24.00
2018-06-20T12:18:29.614Z,24.00
2018-06-20T12:21:04.135Z,24.00
2018-06-20T12:23:38.665Z,24.00
2018-06-20T12:26:13.307Z,24.00
2018-06-20T12:28:47.931Z,24.00
2018-06-20T12:31:22.494Z,24.00
2018-06-20T12:33:57.082Z,24.00
2018-06-20T12:36:31.703Z,23.90
2018-06-20T12:39:00.837Z,23.90
2018-06-20T12:41:36.267Z,24.00
2018-06-20T12:44:11.231Z,24.00
2018-06-20T12:46:58.686Z,24.00
2018-06-20T12:49:30.771Z,24.00
2018-06-20T12:52:00.024Z,23.90
2018-06-20T12:54:29.297Z,23.90
2018-06-20T12:56:58.608Z,23.90
2018-06-20T12:59:27.864Z,23.90
2018-06-20T13:01:57.228Z,24.00
2018-06-20T13:04:26.482Z,23.90
2018-06-20T13:06:55.749Z,23.90
2018-06-20T13:09:25.011Z,23.80
2018-06-20T13:11:54.286Z,23.80
2018-06-20T13:14:23.837Z,23.80
2018-06-20T13:16:53.170Z,23.80
2018-06-20T13:19:22.513Z,23.80
2018-06-20T13:21:51.913Z,23.70
2018-06-20T13:24:21.226Z,23.70
2018-06-20T13:26:50.510Z,23.80
2018-06-20T13:29:19.789Z,23.70
2018-06-20T13:31:54.330Z,23.70
2018-06-20T13:34:29.404Z,23.70
2018-06-20T13:37:04.059Z,23.70
2018-06-20T13:39:38.690Z,23.70
2018-06-20T13:42:09.474Z,23.70
2018-06-20T13:47:12.755Z,23.70
2018-06-20T13:49:42.096Z,23.70
2018-06-20T13:52:11.368Z,23.70
2018-06-20T13:54:40.608Z,23.70
2018-06-20T13:57:09.868Z,23.70
2018-06-20T13:59:39.146Z,23.70
2018-06-20T14:02:08.381Z,23.70
2018-06-20T14:04:37.629Z,23.70
2018-06-20T14:07:06.908Z,23.70
2018-06-20T14:09:36.164Z,23.70
2018-06-20T14:14:34.267Z,23.70
2018-06-20T14:17:03.514Z,23.70
2018-06-20T14:19:38.080Z,23.70
2018-06-20T14:22:16.135Z,23.70
2018-06-20T14:24:45.423Z,23.70
2018-06-20T14:27:14.687Z,23.70
2018-06-20T14:29:44.290Z,23.70
2018-06-20T14:32:18.850Z,23.70
2018-06-20T14:34:53.325Z,23.70
2018-06-20T14:37:27.742Z,23.70
2018-06-20T14:40:02.296Z,23.70
2018-06-20T14:42:36.889Z,23.70
2018-06-20T14:45:11.379Z,23.70
2018-06-20T14:47:40.617Z,23.70
2018-06-20T14:50:09.856Z,23.70
2018-06-20T14:52:39.115Z,23.70
2018-06-20T14:55:08.522Z,23.80
2018-06-20T14:57:37.871Z,23.70
2018-06-20T15:00:07.578Z,23.70
2018-06-20T15:02:36.843Z,23.70
2018-06-20T15:05:06.132Z,23.70
2018-06-20T15:07:35.620Z,23.80
2018-06-20T15:10:04.958Z,23.80
2018-06-20T15:12:34.202Z,23.80
2018-06-20T15:15:03.482Z,23.80
2018-06-20T15:17:32.746Z,23.80
2018-06-20T15:20:02.018Z,23.80
2018-06-20T15:22:36.559Z,23.80
2018-06-20T15:25:05.824Z,23.80
2018-06-20T15:27:40.475Z,23.80
2018-06-20T15:30:14.986Z,23.80
2018-06-20T15:32:49.535Z,23.80
2018-06-20T15:35:24.098Z,23.80
2018-06-20T15:37:58.650Z,23.80
2018-06-20T15:40:27.905Z,23.90
2018-06-20T15:42:57.193Z,23.90
2018-06-20T15:45:26.434Z,23.90
2018-06-20T15:47:55.693Z,23.90
2018-06-20T15:50:24.964Z,23.90
2018-06-20T15:52:54.206Z,23.90
2018-06-20T15:55:23.466Z,23.90
2018-06-20T15:57:52.757Z,23.90
2018-06-20T16:00:22.017Z,23.90
2018-06-20T16:02:51.256Z,23.90
2018-06-20T16:05:20.518Z,23.90
2018-06-20T16:07:50.173Z,23.90
2018-06-20T16:10:20.061Z,23.90
2018-06-20T16:12:49.337Z,23.90
2018-06-20T16:15:19.070Z,23.90
2018-06-20T16:17:48.358Z,23.90
2018-06-20T16:20:22.905Z,23.90
2018-06-20T16:22:57.535Z,24.00
2018-06-20T16:25:32.035Z,23.90
2018-06-20T16:28:06.540Z,23.90
2018-06-20T16:30:37.090Z,24.00
2018-06-20T16:33:06.363Z,23.90
2018-06-20T16:35:36.230Z,23.90
2018-06-20T16:38:06.326Z,24.00
2018-06-20T16:40:41.605Z,23.90
2018-06-20T16:43:16.202Z,24.00
2018-06-20T16:45:48.462Z,24.00
2018-06-20T16:48:17.716Z,24.00
2018-06-20T16:50:46.960Z,24.00
2018-06-20T16:53:20.705Z,24.00
2018-06-20T16:55:54.321Z,24.00
2018-06-20T16:58:24.847Z,24.00
2018-06-20T17:00:58.321Z,24.00
2018-06-20T17:03:27.592Z,24.10
2018-06-20T17:05:56.867Z,24.00
2018-06-20T17:08:26.290Z,24.00
2018-06-20T17:10:55.542Z,24.00
2018-06-20T17:13:30.287Z,24.00
2018-06-20T17:16:04.770Z,24.10
2018-06-20T17:18:39.384Z,24.10
2018-06-20T17:21:14.046Z,24.10
2018-06-20T17:23:48.535Z,24.10
2018-06-20T17:26:17.838Z,24.10
2018-06-20T17:28:47.109Z,24.10
2018-06-20T17:31:16.447Z,24.10
2018-06-20T17:33:45.739Z,24.10
2018-06-20T17:36:15.027Z,24.20
2018-06-20T17:38:44.311Z,24.20
2018-06-20T17:41:13.550Z,24.30
2018-06-20T17:43:42.832Z,24.30
2018-06-20T17:46:12.872Z,24.30
2018-06-20T17:48:42.098Z,24.30
2018-06-20T17:51:11.412Z,24.30
2018-06-20T17:53:40.666Z,24.20
2018-06-20T17:56:09.999Z,24.20
2018-06-20T17:58:39.257Z,24.20
2018-06-20T18:01:10.361Z,25.40
2018-06-20T18:03:40.293Z,24.20
2018-06-20T18:06:14.790Z,24.20
2018-06-20T18:11:22.613Z,24.20
2018-06-20T18:13:56.970Z,24.30
2018-06-20T18:16:31.456Z,24.20
2018-06-20T18:19:00.675Z,24.30
2018-06-20T18:21:29.957Z,24.30
2018-06-20T18:26:28.054Z,24.30
2018-06-20T18:28:57.373Z,24.40
2018-06-20T18:31:26.650Z,24.40
2018-06-20T18:33:55.909Z,24.40
2018-06-20T18:36:25.831Z,24.40
2018-06-20T18:38:55.086Z,24.40
2018-06-20T18:41:55.170Z,24.40
2018-06-20T18:44:24.413Z,24.30
2018-06-20T18:46:53.815Z,24.30
2018-06-20T18:49:23.401Z,24.30
2018-06-20T18:51:54.057Z,24.30
2018-06-20T18:54:23.421Z,24.30
2018-06-20T18:56:52.742Z,24.30
2018-06-20T18:59:27.371Z,24.30
2018-06-20T19:02:01.906Z,24.30
2018-06-20T19:04:36.480Z,24.30
2018-06-20T19:07:11.200Z,24.40
2018-06-20T19:09:40.528Z,24.50
2018-06-20T19:12:09.778Z,24.50
2018-06-20T19:14:39.042Z,24.50
2018-06-20T19:17:08.322Z,24.50
2018-06-20T19:19:37.639Z,24.50
2018-06-20T19:22:06.985Z,24.50
2018-06-20T19:24:36.350Z,24.40
2018-06-20T19:27:05.618Z,24.40
2018-06-20T19:29:34.873Z,24.40
2018-06-20T19:32:04.110Z,24.40
2018-06-20T19:34:33.372Z,24.40
2018-06-20T19:37:02.798Z,24.30
2018-06-20T19:39:37.479Z,24.30
2018-06-20T19:42:06.779Z,24.40
2018-06-20T19:44:36.123Z,24.30
2018-06-20T19:47:08.223Z,24.30
2018-06-20T19:49:37.478Z,24.30
2018-06-20T19:52:06.755Z,24.40
2018-06-20T19:54:36.021Z,24.40
2018-06-20T19:57:05.344Z,24.50
2018-06-20T19:59:34.670Z,24.50
2018-06-20T20:02:03.930Z,24.50
2018-06-20T20:04:33.225Z,24.60
2018-06-20T20:07:02.503Z,24.70
2018-06-20T20:09:31.773Z,24.70
2018-06-20T20:12:01.056Z,24.80
2018-06-20T20:14:30.330Z,24.80
2018-06-20T20:16:59.579Z,24.90
2018-06-20T20:19:29.154Z,25.00
2018-06-20T20:21:58.430Z,25.10
2018-06-20T20:24:28.212Z,25.10
2018-06-20T20:26:57.515Z,25.10
2018-06-20T20:29:26.800Z,25.20
2018-06-20T20:31:56.112Z,25.20
2018-06-20T20:34:25.372Z,25.30
2018-06-20T20:36:54.643Z,25.40
2018-06-20T20:39:24.006Z,25.30
2018-06-20T20:41:53.272Z,25.40
2018-06-20T20:44:22.646Z,25.40
2018-06-20T20:46:51.920Z,25.40
2018-06-20T20:49:21.200Z,25.50
2018-06-20T20:51:50.617Z,25.50
2018-06-20T20:54:19.868Z,25.50
2018-06-20T20:56:49.125Z,25.50
2018-06-20T20:59:18.437Z,25.40
2018-06-20T21:01:47.722Z,25.30
2018-06-20T21:04:16.972Z,25.30
2018-06-20T21:06:46.274Z,25.10
2018-06-20T21:09:24.101Z,25.20
2018-06-20T21:11:53.490Z,25.10
2018-06-20T21:14:22.910Z,25.10
2018-06-20T21:16:52.182Z,25.00
2018-06-20T21:19:21.459Z,25.00
2018-06-20T21:21:50.750Z,24.90
2018-06-20T21:24:20.045Z,24.90
2018-06-20T21:26:49.290Z,24.80
2018-06-20T21:29:18.546Z,24.80
2018-06-20T21:31:47.786Z,24.70
2018-06-20T21:34:17.216Z,24.70
2018-06-20T21:36:46.466Z,24.60
2018-06-20T21:39:15.715Z,24.60
2018-06-20T21:41:44.967Z,24.60
2018-06-20T21:44:14.258Z,24.60
2018-06-20T21:46:43.489Z,24.50
2018-06-20T21:49:12.754Z,24.50
2018-06-20T21:51:42.022Z,24.50
2018-06-20T21:54:11.272Z,24.50
2018-06-20T21:56:40.538Z,24.40
2018-06-20T21:59:09.798Z,24.40
2018-06-20T22:01:39.083Z,24.30
2018-06-20T22:04:08.738Z,24.30
2018-06-20T22:06:37.992Z,24.30
2018-06-20T22:09:08.750Z,24.20
2018-06-20T22:11:38.492Z,24.20
2018-06-20T22:14:09.091Z,24.20
2018-06-20T22:16:38.929Z,24.20
2018-06-20T22:19:08.203Z,24.20
2018-06-20T22:21:37.477Z,24.20
2018-06-20T22:26:35.529Z,24.20
2018-06-20T22:29:04.825Z,24.10
2018-06-20T22:31:34.103Z,24.10
2018-06-20T22:34:03.434Z,24.10
2018-06-20T22:36:32.689Z,24.10
2018-06-20T22:39:02.143Z,24.10
2018-06-20T22:41:31.415Z,24.10
2018-06-20T22:44:00.741Z,24.10
2018-06-20T22:46:30.011Z,24.10
2018-06-20T22:48:59.285Z,24.10
2018-06-20T22:51:28.572Z,24.10
2018-06-20T22:53:57.866Z,24.00
2018-06-20T22:56:27.171Z,24.10
2018-06-20T22:58:56.425Z,24.10
2018-06-20T23:01:25.695Z,24.10
2018-06-20T23:03:55.217Z,24.00
2018-06-20T23:06:24.817Z,24.00
2018-06-20T23:08:54.098Z,24.00
2018-06-20T23:11:23.358Z,24.00
2018-06-20T23:13:52.635Z,23.90
2018-06-20T23:16:21.897Z,23.90
2018-06-20T23:18:51.178Z,23.90
2018-06-20T23:21:20.485Z,23.80
2018-06-20T23:23:49.862Z,23.80
2018-06-20T23:26:19.144Z,23.80
2018-06-20T23:28:48.391Z,23.80
2018-06-20T23:31:17.645Z,23.80
2018-06-20T23:33:47.145Z,23.80
2018-06-20T23:36:16.373Z,23.80
2018-06-20T23:38:45.650Z,23.80
2018-06-20T23:41:15.167Z,23.80
2018-06-20T23:43:44.646Z,23.70
2018-06-20T23:46:14.090Z,23.70
2018-06-20T23:48:43.658Z,23.70
2018-06-20T23:51:12.926Z,23.70
2018-06-20T23:53:42.153Z,23.70
2018-06-20T23:56:11.454Z,23.70
2018-06-20T23:58:40.725Z,23.70
